createdAt,value
2023-04-05T00:00:39.282Z,4.41
2023-04-05T00:05:41.103Z,4.38
2023-04-05T00:10:42.906Z,4.45
2023-04-05T00:15:44.708Z,4.45
2023-04-05T00:20:46.304Z,4.35
2023-04-05T00:25:48.073Z,4.39
2023-04-05T00:30:52.288Z,4.38
2023-04-05T00:35:54.035Z,4.40
2023-04-05T00:40:55.802Z,4.20
2023-04-05T00:45:57.552Z,4.12
2023-04-05T00:50:59.899Z,4.10
2023-04-05T00:56:02.114Z,4.10
2023-04-05T01:01:16.512Z,4.13
2023-04-05T01:06:39.216Z,4.04
2023-04-05T01:11:42.904Z,4.02
2023-04-05T01:16:45.534Z,3.95
2023-04-05T01:22:18.349Z,3.98
2023-04-05T01:27:22.537Z,3.92
2023-04-05T01:32:36.617Z,3.93
2023-04-05T01:37:38.978Z,4.05
2023-04-05T01:42:40.607Z,4.13
2023-04-05T01:47:43.502Z,4.09
2023-04-05T01:52:45.579Z,4.12
2023-04-05T01:57:47.178Z,4.15
2023-04-05T02:02:48.929Z,4.13
2023-04-05T02:07:50.733Z,4.06
2023-04-05T02:12:52.374Z,4.08
2023-04-05T02:17:54.151Z,4.16
2023-04-05T02:22:56.834Z,4.12
2023-04-05T02:27:58.440Z,4.14
2023-04-05T02:33:00.102Z,4.18
2023-04-05T02:38:04.659Z,4.17
2023-04-05T02:43:08.943Z,4.10
2023-04-05T02:48:10.656Z,4.07
2023-04-05T02:53:13.085Z,4.02
2023-04-05T02:58:14.761Z,4.02
2023-04-05T03:03:22.121Z,3.99
2023-04-05T03:08:24.096Z,4.04
2023-04-05T03:13:35.949Z,4.06
2023-04-05T03:18:40.792Z,4.06
2023-04-05T03:23:48.503Z,4.00
2023-04-05T03:28:54.121Z,4.00
2023-04-05T03:34:02.030Z,4.03
2023-04-05T03:39:13.370Z,3.99
2023-04-05T03:44:15.016Z,3.98
2023-04-05T03:49:16.788Z,4.10
2023-04-05T03:54:19.370Z,4.09
2023-04-05T03:59:21.297Z,4.08
2023-04-05T04:04:23.777Z,4.16
2023-04-05T04:09:25.735Z,4.10
2023-04-05T04:14:27.430Z,3.99
2023-04-05T04:19:32.099Z,3.87
2023-04-05T04:24:46.192Z,4.00
2023-04-05T04:30:11.856Z,3.97
2023-04-05T04:35:47.125Z,3.97
2023-04-05T04:41:17.676Z,3.84
2023-04-05T04:46:43.203Z,3.79
2023-04-05T04:51:59.700Z,3.76
2023-04-05T04:57:02.453Z,3.74
2023-04-05T05:02:04.034Z,3.91
2023-04-05T05:07:05.897Z,3.98
2023-04-05T05:12:08.791Z,3.92
2023-04-05T05:17:10.410Z,4.11
2023-04-05T05:22:12.086Z,4.36
2023-04-05T05:27:14.723Z,4.53
2023-04-05T05:32:17.053Z,4.49
2023-04-05T05:37:18.812Z,4.70
2023-04-05T05:42:21.277Z,4.84
2023-04-05T05:47:23.044Z,4.94
2023-04-05T05:52:24.964Z,5.03
2023-04-05T05:57:27.365Z,5.06
2023-04-05T06:02:28.992Z,5.25
2023-04-05T06:07:30.829Z,5.11
2023-04-05T06:12:32.807Z,5.21
2023-04-05T06:17:36.278Z,5.63
2023-04-05T06:22:40.757Z,5.44
2023-04-05T06:27:42.604Z,5.65
2023-04-05T06:32:44.619Z,5.84
2023-04-05T06:37:46.275Z,5.74
2023-04-05T06:42:47.874Z,6.04
2023-04-05T06:47:55.004Z,5.65
2023-04-05T06:52:56.906Z,5.55
2023-04-05T06:57:58.516Z,6.12
2023-04-05T07:03:00.290Z,6.26
2023-04-05T07:08:01.916Z,6.27
2023-04-05T07:13:03.613Z,6.36
2023-04-05T07:18:05.558Z,6.27
2023-04-05T07:23:07.438Z,6.51
2023-04-05T07:28:09.038Z,6.14
2023-04-05T07:33:11.071Z,6.62
2023-04-05T07:38:12.784Z,6.38
2023-04-05T07:43:14.385Z,6.39
2023-04-05T07:48:17.042Z,6.88
2023-04-05T07:53:18.634Z,6.92
2023-04-05T07:58:22.596Z,6.99
2023-04-05T08:03:24.401Z,6.96
2023-04-05T08:08:26.226Z,7.21
2023-04-05T08:13:27.854Z,7.38
2023-04-05T08:18:29.498Z,7.37
2023-04-05T08:23:31.937Z,7.62
2023-04-05T08:28:34.395Z,7.91
2023-04-05T08:33:35.962Z,8.22
2023-04-05T08:38:37.609Z,7.72
2023-04-05T08:43:53.236Z,7.82
2023-04-05T08:48:54.886Z,7.76
2023-04-05T08:53:56.483Z,7.80
2023-04-05T08:59:08.536Z,7.95
2023-04-05T09:04:14.548Z,7.93
2023-04-05T09:09:17.078Z,7.46
2023-04-05T09:14:19.238Z,7.31
2023-04-05T09:19:20.960Z,6.97
2023-04-05T09:24:41.861Z,7.53
2023-04-05T09:29:47.836Z,7.63
2023-04-05T09:34:52.514Z,7.62
2023-04-05T09:40:04.310Z,7.69
2023-04-05T09:45:07.280Z,7.86
2023-04-05T09:50:20.262Z,7.83
2023-04-05T09:55:28.834Z,8.23
2023-04-05T10:00:32.367Z,7.74
2023-04-05T10:05:34.149Z,8.01
2023-04-05T10:10:38.418Z,8.33
2023-04-05T10:15:41.398Z,8.28
2023-04-05T10:20:47.419Z,8.28
2023-04-05T10:25:53.163Z,8.46
2023-04-05T10:31:30.417Z,8.55
2023-04-05T10:36:56.681Z,8.46
2023-04-05T10:42:21.007Z,8.52
2023-04-05T10:47:23.748Z,8.57
2023-04-05T10:52:26.388Z,8.25
2023-04-05T10:57:28.198Z,8.44
2023-04-05T11:02:30.406Z,8.54
2023-04-05T11:07:45.473Z,8.74
2023-04-05T11:12:47.090Z,8.84
2023-04-05T11:18:08.889Z,8.80
2023-04-05T11:23:12.232Z,8.47
2023-04-05T11:28:25.050Z,8.38
2023-04-05T11:33:37.724Z,8.41
2023-04-05T11:38:42.391Z,8.66
2023-04-05T11:43:45.074Z,8.37
2023-04-05T11:48:50.401Z,8.25
2023-04-05T11:53:51.982Z,8.46
2023-04-05T11:58:58.418Z,8.87
2023-04-05T12:04:00.841Z,8.91
2023-04-05T12:09:07.536Z,8.89
2023-04-05T12:14:09.236Z,9.24
2023-04-05T12:19:11.065Z,8.80
2023-04-05T12:24:12.829Z,8.74
2023-04-05T12:29:14.462Z,8.74
2023-04-05T12:34:23.903Z,8.82
2023-04-05T12:39:29.594Z,8.99
2023-04-05T12:44:31.685Z,9.05
2023-04-05T12:49:39.608Z,9.12
2023-04-05T12:54:41.229Z,9.17
2023-04-05T12:59:42.824Z,8.86
2023-04-05T13:04:44.442Z,8.99
2023-04-05T13:09:46.037Z,9.05
2023-04-05T13:14:47.723Z,8.94
2023-04-05T13:19:49.297Z,8.81
2023-04-05T13:24:52.158Z,8.81
2023-04-05T13:29:53.915Z,8.54
2023-04-05T13:34:55.716Z,8.35
2023-04-05T13:39:57.390Z,8.28
2023-04-05T13:44:59.091Z,8.15
2023-04-05T13:50:00.868Z,8.31
2023-04-05T13:55:03.765Z,8.42
2023-04-05T14:00:08.961Z,8.26
2023-04-05T14:05:15.462Z,8.04
2023-04-05T14:10:17.763Z,8.55
2023-04-05T14:15:19.734Z,8.41
2023-04-05T14:20:21.506Z,8.57
2023-04-05T14:25:23.169Z,8.64
2023-04-05T14:30:24.854Z,8.55
2023-04-05T14:35:26.688Z,8.57
2023-04-05T14:40:28.451Z,8.51
2023-04-05T14:45:30.259Z,8.36
2023-04-05T14:50:32.590Z,8.57
2023-04-05T14:55:34.272Z,8.59
2023-04-05T15:00:36.022Z,8.47
2023-04-05T15:05:37.741Z,8.47
2023-04-05T15:10:40.505Z,8.31
2023-04-05T15:15:42.360Z,8.37
2023-04-05T15:20:44.124Z,8.50
2023-04-05T15:25:46.587Z,8.38
2023-04-05T15:30:48.344Z,8.57
2023-04-05T15:35:50.043Z,8.67
2023-04-05T15:40:52.639Z,8.71
2023-04-05T15:45:54.442Z,8.46
2023-04-05T15:50:56.195Z,8.55
2023-04-05T15:55:58.395Z,8.46
2023-04-05T16:01:00.193Z,8.56
2023-04-05T16:06:02.276Z,8.57
2023-04-05T16:11:04.061Z,8.47
2023-04-05T16:16:06.825Z,8.66
2023-04-05T16:21:08.619Z,8.57
2023-04-05T16:26:10.324Z,8.44
2023-04-05T16:31:12.476Z,8.40
2023-04-05T16:36:14.229Z,8.52
2023-04-05T16:41:16.266Z,8.43
2023-04-05T16:46:18.628Z,8.33
2023-04-05T16:51:20.398Z,8.31
2023-04-05T16:56:22.864Z,8.25
2023-04-05T17:01:24.887Z,8.28
2023-04-05T17:06:27.919Z,8.22
2023-04-05T17:11:30.099Z,8.16
2023-04-05T17:16:31.776Z,8.00
2023-04-05T17:21:35.359Z,8.19
2023-04-05T17:26:37.085Z,8.13
2023-04-05T17:31:39.600Z,8.16
2023-04-05T17:36:41.444Z,8.15
2023-04-05T17:41:45.615Z,8.14
2023-04-05T17:46:54.299Z,8.06
2023-04-05T17:52:04.820Z,7.99
2023-04-05T17:57:07.014Z,7.99
2023-04-05T18:02:11.012Z,7.76
2023-04-05T18:07:13.002Z,7.89
2023-04-05T18:12:14.686Z,7.87
2023-04-05T18:17:17.844Z,7.78
2023-04-05T18:22:20.267Z,7.87
2023-04-05T18:27:21.973Z,7.83
2023-04-05T18:32:23.873Z,7.82
2023-04-05T18:37:25.678Z,7.80
2023-04-05T18:42:27.352Z,7.81
2023-04-05T18:47:29.169Z,7.79
2023-04-05T18:52:34.136Z,7.76
2023-04-05T18:57:36.052Z,7.65
2023-04-05T19:02:37.885Z,7.59
2023-04-05T19:07:39.670Z,7.60
2023-04-05T19:12:41.639Z,7.57
2023-04-05T19:17:43.383Z,7.56
2023-04-05T19:22:45.268Z,7.55
2023-04-05T19:27:47.006Z,7.47
2023-04-05T19:32:49.022Z,7.36
2023-04-05T19:37:50.906Z,7.33
2023-04-05T19:42:52.885Z,7.32
2023-04-05T19:47:55.624Z,7.27
2023-04-05T19:52:57.743Z,7.08
2023-04-05T19:58:01.426Z,7.06
2023-04-05T20:03:18.656Z,7.11
2023-04-05T20:08:20.422Z,7.12
2023-04-05T20:13:22.202Z,7.22
2023-04-05T20:18:25.943Z,7.09
2023-04-05T20:23:29.318Z,7.13
2023-04-05T20:28:41.973Z,7.13
2023-04-05T20:33:47.142Z,7.03
2023-04-05T20:38:50.059Z,7.03
2023-04-05T20:43:52.658Z,6.98
2023-04-05T20:48:55.092Z,6.93
2023-04-05T20:53:57.125Z,6.91
2023-04-05T20:58:59.147Z,7.03
2023-04-05T21:04:01.209Z,6.95
2023-04-05T21:09:03.105Z,6.91
2023-04-05T21:14:04.985Z,6.83
2023-04-05T21:19:07.950Z,6.73
2023-04-05T21:24:10.133Z,6.64
2023-04-05T21:29:11.913Z,6.65
2023-04-05T21:34:13.590Z,6.52
2023-04-05T21:39:15.368Z,6.45
2023-04-05T21:44:17.033Z,6.37
2023-04-05T21:49:18.747Z,6.31
2023-04-05T21:54:20.452Z,6.26
2023-04-05T21:59:22.449Z,6.16
2023-04-05T22:04:26.540Z,6.10
2023-04-05T22:09:28.587Z,6.02
2023-04-05T22:14:30.673Z,5.90
2023-04-05T22:19:32.416Z,5.83
2023-04-05T22:24:34.106Z,5.78
2023-04-05T22:29:36.139Z,5.72
2023-04-05T22:34:37.899Z,5.65
2023-04-05T22:39:39.575Z,5.54
2023-04-05T22:44:41.518Z,5.47
2023-04-05T22:49:43.301Z,5.45
2023-04-05T22:54:44.961Z,5.35
2023-04-05T22:59:46.749Z,5.29
2023-04-05T23:04:48.566Z,5.35
2023-04-05T23:09:50.250Z,5.39
2023-04-05T23:14:52.048Z,5.08
2023-04-05T23:19:53.805Z,5.24
2023-04-05T23:24:55.652Z,5.19
2023-04-05T23:29:57.483Z,5.06
2023-04-05T23:34:59.147Z,5.08
2023-04-05T23:40:00.920Z,5.00
2023-04-05T23:45:04.304Z,4.89
2023-04-05T23:50:06.752Z,4.86
2023-04-05T23:55:08.940Z,4.78
